sensor_id;sensor_type;location;lat;lon;timestamp;P1;durP1;ratioP1;P2;durP2;ratioP2
35877;SDS011;21982;49.804;24.072;2022-08-20T00:00:24;9.32;;;4.32;;
35877;SDS011;21982;49.804;24.072;2022-08-20T00:02:55;7.65;;;3.63;;
35877;SDS011;21982;49.804;24.072;2022-08-20T00:05:25;6.13;;;3.53;;
35877;SDS011;21982;49.804;24.072;2022-08-20T00:07:57;9.50;;;3.58;;
35877;SDS011;21982;49.804;24.072;2022-08-20T00:10:26;9.05;;;4.18;;
35877;SDS011;21982;49.804;24.072;2022-08-20T00:12:56;7.30;;;3.47;;
35877;SDS011;21982;49.804;24.072;2022-08-20T00:15:33;7.75;;;3.75;;
35877;SDS011;21982;49.804;24.072;2022-08-20T00:17:59;9.63;;;3.40;;
35877;SDS011;21982;49.804;24.072;2022-08-20T00:20:26;9.85;;;3.80;;
35877;SDS011;21982;49.804;24.072;2022-08-20T00:22:54;11.20;;;3.45;;
35877;SDS011;21982;49.804;24.072;2022-08-20T00:25:21;11.38;;;3.88;;
35877;SDS011;21982;49.804;24.072;2022-08-20T00:27:48;12.73;;;4.53;;
35877;SDS011;21982;49.804;24.072;2022-08-20T00:30:14;9.40;;;3.85;;
35877;SDS011;21982;49.804;24.072;2022-08-20T00:32:47;10.55;;;4.05;;
35877;SDS011;21982;49.804;24.072;2022-08-20T00:35:17;7.78;;;3.92;;
35877;SDS011;21982;49.804;24.072;2022-08-20T00:37:44;7.10;;;4.00;;
35877;SDS011;21982;49.804;24.072;2022-08-20T00:40:12;13.52;;;4.35;;
35877;SDS011;21982;49.804;24.072;2022-08-20T00:42:44;11.05;;;4.07;;
35877;SDS011;21982;49.804;24.072;2022-08-20T00:45:12;10.70;;;3.85;;
35877;SDS011;21982;49.804;24.072;2022-08-20T00:47:40;15.32;;;4.53;;
35877;SDS011;21982;49.804;24.072;2022-08-20T00:50:12;9.32;;;3.70;;
35877;SDS011;21982;49.804;24.072;2022-08-20T00:52:40;11.38;;;3.90;;
35877;SDS011;21982;49.804;24.072;2022-08-20T00:55:07;8.18;;;3.80;;
35877;SDS011;21982;49.804;24.072;2022-08-20T00:57:39;10.35;;;3.45;;
35877;SDS011;21982;49.804;24.072;2022-08-20T01:00:17;13.25;;;5.85;;
35877;SDS011;21982;49.804;24.072;2022-08-20T01:02:51;14.18;;;6.60;;
35877;SDS011;21982;49.804;24.072;2022-08-20T01:05:17;10.70;;;5.75;;
35877;SDS011;21982;49.804;24.072;2022-08-20T01:07:43;8.40;;;5.32;;
35877;SDS011;21982;49.804;24.072;2022-08-20T01:12:41;9.68;;;4.78;;
35877;SDS011;21982;49.804;24.072;2022-08-20T01:15:10;11.02;;;5.22;;
35877;SDS011;21982;49.804;24.072;2022-08-20T01:17:39;15.65;;;5.15;;
35877;SDS011;21982;49.804;24.072;2022-08-20T01:20:11;12.23;;;5.13;;
35877;SDS011;21982;49.804;24.072;2022-08-20T01:22:49;11.45;;;5.47;;
35877;SDS011;21982;49.804;24.072;2022-08-20T01:28:23;13.23;;;6.13;;
35877;SDS011;21982;49.804;24.072;2022-08-20T01:30:53;11.13;;;4.45;;
35877;SDS011;21982;49.804;24.072;2022-08-20T01:33:22;9.60;;;4.93;;
35877;SDS011;21982;49.804;24.072;2022-08-20T01:35:54;9.15;;;5.40;;
35877;SDS011;21982;49.804;24.072;2022-08-20T01:38:21;13.80;;;5.18;;
35877;SDS011;21982;49.804;24.072;2022-08-20T01:43:54;11.32;;;4.68;;
35877;SDS011;21982;49.804;24.072;2022-08-20T01:46:33;17.40;;;5.13;;
35877;SDS011;21982;49.804;24.072;2022-08-20T01:49:12;15.18;;;4.93;;
35877;SDS011;21982;49.804;24.072;2022-08-20T01:51:46;13.25;;;4.63;;
35877;SDS011;21982;49.804;24.072;2022-08-20T01:54:28;9.48;;;4.10;;
35877;SDS011;21982;49.804;24.072;2022-08-20T01:57:00;12.93;;;4.30;;
35877;SDS011;21982;49.804;24.072;2022-08-20T01:59:28;13.65;;;5.72;;
35877;SDS011;21982;49.804;24.072;2022-08-20T02:01:54;11.55;;;4.28;;
35877;SDS011;21982;49.804;24.072;2022-08-20T02:04:21;6.63;;;3.83;;
35877;SDS011;21982;49.804;24.072;2022-08-20T02:06:50;12.55;;;4.18;;
35877;SDS011;21982;49.804;24.072;2022-08-20T02:09:43;10.30;;;4.15;;
35877;SDS011;21982;49.804;24.072;2022-08-20T02:12:15;9.52;;;4.45;;
35877;SDS011;21982;49.804;24.072;2022-08-20T02:14:45;10.68;;;3.92;;
35877;SDS011;21982;49.804;24.072;2022-08-20T02:17:13;12.70;;;5.07;;
35877;SDS011;21982;49.804;24.072;2022-08-20T02:19:45;10.95;;;4.63;;
35877;SDS011;21982;49.804;24.072;2022-08-20T02:24:55;8.55;;;4.30;;
35877;SDS011;21982;49.804;24.072;2022-08-20T02:27:20;10.80;;;4.80;;
35877;SDS011;21982;49.804;24.072;2022-08-20T02:29:47;11.23;;;5.47;;
35877;SDS011;21982;49.804;24.072;2022-08-20T02:32:13;10.95;;;5.38;;
35877;SDS011;21982;49.804;24.072;2022-08-20T02:34:38;10.57;;;5.00;;
35877;SDS011;21982;49.804;24.072;2022-08-20T02:37:05;9.80;;;4.47;;
35877;SDS011;21982;49.804;24.072;2022-08-20T02:39:31;8.45;;;4.53;;
35877;SDS011;21982;49.804;24.072;2022-08-20T02:41:57;9.70;;;5.03;;
35877;SDS011;21982;49.804;24.072;2022-08-20T02:44:22;11.35;;;5.13;;
35877;SDS011;21982;49.804;24.072;2022-08-20T02:46:48;8.70;;;5.07;;
35877;SDS011;21982;49.804;24.072;2022-08-20T02:49:15;8.27;;;4.75;;
35877;SDS011;21982;49.804;24.072;2022-08-20T02:51:44;12.27;;;5.80;;
35877;SDS011;21982;49.804;24.072;2022-08-20T02:54:11;12.48;;;5.53;;
35877;SDS011;21982;49.804;24.072;2022-08-20T02:56:41;13.80;;;5.50;;
35877;SDS011;21982;49.804;24.072;2022-08-20T02:59:15;14.00;;;5.88;;
35877;SDS011;21982;49.804;24.072;2022-08-20T03:01:42;12.57;;;5.75;;
35877;SDS011;21982;49.804;24.072;2022-08-20T03:04:20;13.13;;;5.75;;
35877;SDS011;21982;49.804;24.072;2022-08-20T03:06:46;11.48;;;6.20;;
35877;SDS011;21982;49.804;24.072;2022-08-20T03:09:12;24.88;;;7.28;;
35877;SDS011;21982;49.804;24.072;2022-08-20T03:11:37;15.32;;;6.25;;
35877;SDS011;21982;49.804;24.072;2022-08-20T03:14:04;13.55;;;6.40;;
35877;SDS011;21982;49.804;24.072;2022-08-20T03:16:30;14.00;;;7.03;;
35877;SDS011;21982;49.804;24.072;2022-08-20T03:18:56;11.25;;;5.60;;
35877;SDS011;21982;49.804;24.072;2022-08-20T03:21:21;13.10;;;6.25;;
35877;SDS011;21982;49.804;24.072;2022-08-20T03:23:47;13.95;;;6.47;;
35877;SDS011;21982;49.804;24.072;2022-08-20T03:26:12;12.65;;;7.05;;
35877;SDS011;21982;49.804;24.072;2022-08-20T03:28:39;17.48;;;7.05;;
35877;SDS011;21982;49.804;24.072;2022-08-20T03:31:05;14.90;;;7.00;;
35877;SDS011;21982;49.804;24.072;2022-08-20T03:33:31;12.88;;;6.65;;
35877;SDS011;21982;49.804;24.072;2022-08-20T03:35:57;14.48;;;6.40;;
35877;SDS011;21982;49.804;24.072;2022-08-20T03:38:26;17.70;;;6.68;;
35877;SDS011;21982;49.804;24.072;2022-08-20T03:40:57;12.82;;;6.13;;
35877;SDS011;21982;49.804;24.072;2022-08-20T03:43:32;13.10;;;6.43;;
35877;SDS011;21982;49.804;24.072;2022-08-20T03:46:01;10.60;;;5.88;;
35877;SDS011;21982;49.804;24.072;2022-08-20T03:48:28;12.40;;;5.88;;
35877;SDS011;21982;49.804;24.072;2022-08-20T03:50:54;14.48;;;7.20;;
35877;SDS011;21982;49.804;24.072;2022-08-20T03:53:20;11.35;;;5.90;;
35877;SDS011;21982;49.804;24.072;2022-08-20T03:55:47;14.75;;;6.72;;
35877;SDS011;21982;49.804;24.072;2022-08-20T03:58:13;14.45;;;6.60;;
35877;SDS011;21982;49.804;24.072;2022-08-20T04:00:42;13.25;;;6.47;;
35877;SDS011;21982;49.804;24.072;2022-08-20T04:03:13;12.30;;;6.30;;
35877;SDS011;21982;49.804;24.072;2022-08-20T04:05:39;16.98;;;6.72;;
35877;SDS011;21982;49.804;24.072;2022-08-20T04:08:13;9.98;;;6.13;;
35877;SDS011;21982;49.804;24.072;2022-08-20T04:10:42;12.85;;;5.93;;
35877;SDS011;21982;49.804;24.072;2022-08-20T04:13:08;11.30;;;5.60;;
35877;SDS011;21982;49.804;24.072;2022-08-20T04:15:34;15.02;;;6.03;;
35877;SDS011;21982;49.804;24.072;2022-08-20T04:18:01;10.30;;;6.05;;
35877;SDS011;21982;49.804;24.072;2022-08-20T04:20:32;14.80;;;7.20;;
35877;SDS011;21982;49.804;24.072;2022-08-20T04:22:58;12.20;;;6.72;;
35877;SDS011;21982;49.804;24.072;2022-08-20T04:25:24;13.43;;;6.05;;
35877;SDS011;21982;49.804;24.072;2022-08-20T04:27:49;16.38;;;6.93;;
35877;SDS011;21982;49.804;24.072;2022-08-20T04:30:16;16.23;;;7.35;;
35877;SDS011;21982;49.804;24.072;2022-08-20T04:32:43;11.23;;;5.55;;
35877;SDS011;21982;49.804;24.072;2022-08-20T04:35:10;9.65;;;6.43;;
35877;SDS011;21982;49.804;24.072;2022-08-20T04:37:39;11.27;;;5.93;;
35877;SDS011;21982;49.804;24.072;2022-08-20T04:40:06;12.80;;;6.60;;
35877;SDS011;21982;49.804;24.072;2022-08-20T04:42:53;12.35;;;5.90;;
35877;SDS011;21982;49.804;24.072;2022-08-20T04:45:18;10.50;;;5.78;;
35877;SDS011;21982;49.804;24.072;2022-08-20T04:47:43;13.27;;;6.93;;
35877;SDS011;21982;49.804;24.072;2022-08-20T04:50:10;13.07;;;6.57;;
35877;SDS011;21982;49.804;24.072;2022-08-20T04:52:37;10.93;;;5.30;;
35877;SDS011;21982;49.804;24.072;2022-08-20T04:55:03;9.95;;;5.97;;
35877;SDS011;21982;49.804;24.072;2022-08-20T04:57:29;11.13;;;5.95;;
35877;SDS011;21982;49.804;24.072;2022-08-20T05:05:05;11.25;;;6.30;;
35877;SDS011;21982;49.804;24.072;2022-08-20T05:07:36;11.32;;;6.10;;
35877;SDS011;21982;49.804;24.072;2022-08-20T05:10:06;18.07;;;6.30;;
35877;SDS011;21982;49.804;24.072;2022-08-20T05:12:34;10.82;;;5.72;;
35877;SDS011;21982;49.804;24.072;2022-08-20T05:14:59;14.38;;;6.80;;
35877;SDS011;21982;49.804;24.072;2022-08-20T05:17:25;14.65;;;6.50;;
35877;SDS011;21982;49.804;24.072;2022-08-20T05:19:50;13.25;;;7.53;;
35877;SDS011;21982;49.804;24.072;2022-08-20T05:22:17;15.00;;;5.95;;
35877;SDS011;21982;49.804;24.072;2022-08-20T05:24:46;12.00;;;5.35;;
35877;SDS011;21982;49.804;24.072;2022-08-20T05:27:12;15.18;;;6.13;;
35877;SDS011;21982;49.804;24.072;2022-08-20T05:29:37;12.65;;;6.47;;
35877;SDS011;21982;49.804;24.072;2022-08-20T05:32:03;11.93;;;5.95;;
35877;SDS011;21982;49.804;24.072;2022-08-20T05:34:29;11.55;;;5.90;;
35877;SDS011;21982;49.804;24.072;2022-08-20T05:36:55;12.32;;;6.22;;
35877;SDS011;21982;49.804;24.072;2022-08-20T05:39:27;18.63;;;6.10;;
35877;SDS011;21982;49.804;24.072;2022-08-20T05:41:53;12.93;;;6.65;;
35877;SDS011;21982;49.804;24.072;2022-08-20T05:44:20;12.25;;;5.82;;
35877;SDS011;21982;49.804;24.072;2022-08-20T05:46:50;13.55;;;6.05;;
35877;SDS011;21982;49.804;24.072;2022-08-20T05:49:20;10.10;;;5.00;;
35877;SDS011;21982;49.804;24.072;2022-08-20T05:51:46;12.90;;;5.55;;
35877;SDS011;21982;49.804;24.072;2022-08-20T05:54:12;8.27;;;4.82;;
35877;SDS011;21982;49.804;24.072;2022-08-20T05:56:38;10.32;;;5.43;;
35877;SDS011;21982;49.804;24.072;2022-08-20T05:59:05;13.10;;;4.90;;
35877;SDS011;21982;49.804;24.072;2022-08-20T06:01:33;9.32;;;5.40;;
35877;SDS011;21982;49.804;24.072;2022-08-20T06:04:00;10.50;;;4.72;;
35877;SDS011;21982;49.804;24.072;2022-08-20T06:06:44;9.45;;;5.43;;
35877;SDS011;21982;49.804;24.072;2022-08-20T06:09:10;14.77;;;4.93;;
35877;SDS011;21982;49.804;24.072;2022-08-20T06:11:37;13.48;;;4.55;;
35877;SDS011;21982;49.804;24.072;2022-08-20T06:14:03;10.90;;;4.78;;
35877;SDS011;21982;49.804;24.072;2022-08-20T06:16:29;9.55;;;4.72;;
35877;SDS011;21982;49.804;24.072;2022-08-20T06:18:55;14.98;;;5.05;;
35877;SDS011;21982;49.804;24.072;2022-08-20T06:21:20;10.93;;;4.10;;
35877;SDS011;21982;49.804;24.072;2022-08-20T06:26:36;10.68;;;5.38;;
35877;SDS011;21982;49.804;24.072;2022-08-20T06:29:03;10.07;;;5.55;;
35877;SDS011;21982;49.804;24.072;2022-08-20T06:31:34;8.50;;;4.63;;
35877;SDS011;21982;49.804;24.072;2022-08-20T06:34:04;9.05;;;4.10;;
35877;SDS011;21982;49.804;24.072;2022-08-20T06:36:31;8.90;;;4.22;;
35877;SDS011;21982;49.804;24.072;2022-08-20T06:38:56;9.70;;;3.72;;
35877;SDS011;21982;49.804;24.072;2022-08-20T06:41:22;8.48;;;4.25;;
35877;SDS011;21982;49.804;24.072;2022-08-20T06:43:48;10.48;;;3.60;;
35877;SDS011;21982;49.804;24.072;2022-08-20T06:46:14;9.85;;;3.92;;
35877;SDS011;21982;49.804;24.072;2022-08-20T06:48:40;7.13;;;3.55;;
35877;SDS011;21982;49.804;24.072;2022-08-20T06:51:05;9.60;;;4.45;;
35877;SDS011;21982;49.804;24.072;2022-08-20T06:53:31;10.68;;;3.55;;
35877;SDS011;21982;49.804;24.072;2022-08-20T06:55:56;9.70;;;3.95;;
35877;SDS011;21982;49.804;24.072;2022-08-20T06:58:23;11.25;;;4.05;;
35877;SDS011;21982;49.804;24.072;2022-08-20T07:00:49;7.90;;;3.70;;
35877;SDS011;21982;49.804;24.072;2022-08-20T07:03:14;10.85;;;3.92;;
35877;SDS011;21982;49.804;24.072;2022-08-20T07:05:41;10.25;;;3.45;;
35877;SDS011;21982;49.804;24.072;2022-08-20T07:08:09;8.00;;;4.68;;
35877;SDS011;21982;49.804;24.072;2022-08-20T07:10:39;9.65;;;3.72;;
35877;SDS011;21982;49.804;24.072;2022-08-20T07:13:06;10.73;;;3.28;;
35877;SDS011;21982;49.804;24.072;2022-08-20T07:15:34;9.30;;;3.10;;
35877;SDS011;21982;49.804;24.072;2022-08-20T07:18:00;7.22;;;3.10;;
35877;SDS011;21982;49.804;24.072;2022-08-20T07:20:29;8.00;;;3.75;;
35877;SDS011;21982;49.804;24.072;2022-08-20T07:23:18;9.88;;;3.67;;
35877;SDS011;21982;49.804;24.072;2022-08-20T07:25:47;12.98;;;3.78;;
35877;SDS011;21982;49.804;24.072;2022-08-20T07:28:17;9.48;;;4.00;;
35877;SDS011;21982;49.804;24.072;2022-08-20T07:30:50;8.70;;;4.43;;
35877;SDS011;21982;49.804;24.072;2022-08-20T07:33:35;7.13;;;3.97;;
35877;SDS011;21982;49.804;24.072;2022-08-20T07:36:04;10.98;;;4.25;;
35877;SDS011;21982;49.804;24.072;2022-08-20T07:38:30;9.10;;;4.63;;
35877;SDS011;21982;49.804;24.072;2022-08-20T07:40:59;13.45;;;4.90;;
35877;SDS011;21982;49.804;24.072;2022-08-20T07:43:26;14.98;;;5.20;;
35877;SDS011;21982;49.804;24.072;2022-08-20T07:45:54;9.40;;;4.20;;
35877;SDS011;21982;49.804;24.072;2022-08-20T07:48:23;9.05;;;3.95;;
35877;SDS011;21982;49.804;24.072;2022-08-20T07:50:53;9.25;;;4.40;;
35877;SDS011;21982;49.804;24.072;2022-08-20T07:53:21;13.25;;;4.60;;
35877;SDS011;21982;49.804;24.072;2022-08-20T07:55:57;11.57;;;4.00;;
35877;SDS011;21982;49.804;24.072;2022-08-20T07:58:24;11.93;;;4.25;;
35877;SDS011;21982;49.804;24.072;2022-08-20T08:00:50;14.25;;;5.60;;
35877;SDS011;21982;49.804;24.072;2022-08-20T08:03:17;10.85;;;4.07;;
35877;SDS011;21982;49.804;24.072;2022-08-20T08:05:44;10.38;;;4.75;;
35877;SDS011;21982;49.804;24.072;2022-08-20T08:08:15;9.20;;;4.68;;
35877;SDS011;21982;49.804;24.072;2022-08-20T08:10:50;13.30;;;4.32;;
35877;SDS011;21982;49.804;24.072;2022-08-20T08:13:31;11.23;;;5.10;;
35877;SDS011;21982;49.804;24.072;2022-08-20T08:18:38;11.60;;;3.63;;
35877;SDS011;21982;49.804;24.072;2022-08-20T08:21:09;13.57;;;5.07;;
35877;SDS011;21982;49.804;24.072;2022-08-20T08:23:39;11.65;;;4.60;;
35877;SDS011;21982;49.804;24.072;2022-08-20T08:26:09;10.02;;;4.45;;
35877;SDS011;21982;49.804;24.072;2022-08-20T08:28:45;8.52;;;4.47;;
35877;SDS011;21982;49.804;24.072;2022-08-20T08:31:13;9.07;;;4.53;;
35877;SDS011;21982;49.804;24.072;2022-08-20T08:33:45;11.40;;;5.15;;
35877;SDS011;21982;49.804;24.072;2022-08-20T08:36:14;10.70;;;4.45;;
35877;SDS011;21982;49.804;24.072;2022-08-20T08:38:41;7.47;;;4.20;;
35877;SDS011;21982;49.804;24.072;2022-08-20T08:41:28;8.82;;;4.68;;
35877;SDS011;21982;49.804;24.072;2022-08-20T08:44:01;11.20;;;4.20;;
35877;SDS011;21982;49.804;24.072;2022-08-20T08:46:40;9.05;;;3.95;;
35877;SDS011;21982;49.804;24.072;2022-08-20T08:49:09;9.70;;;4.50;;
35877;SDS011;21982;49.804;24.072;2022-08-20T08:51:41;11.90;;;4.18;;
35877;SDS011;21982;49.804;24.072;2022-08-20T08:54:24;7.65;;;4.38;;
35877;SDS011;21982;49.804;24.072;2022-08-20T08:56:52;9.32;;;4.30;;
35877;SDS011;21982;49.804;24.072;2022-08-20T08:59:19;10.73;;;5.00;;
35877;SDS011;21982;49.804;24.072;2022-08-20T09:01:47;10.05;;;4.70;;
35877;SDS011;21982;49.804;24.072;2022-08-20T09:04:17;8.85;;;4.53;;
35877;SDS011;21982;49.804;24.072;2022-08-20T09:06:46;11.25;;;5.63;;
35877;SDS011;21982;49.804;24.072;2022-08-20T09:09:21;11.93;;;5.38;;
35877;SDS011;21982;49.804;24.072;2022-08-20T09:11:53;12.93;;;4.70;;
35877;SDS011;21982;49.804;24.072;2022-08-20T09:14:21;8.02;;;4.50;;
35877;SDS011;21982;49.804;24.072;2022-08-20T09:16:49;9.25;;;4.97;;
35877;SDS011;21982;49.804;24.072;2022-08-20T09:19:17;11.50;;;6.07;;
35877;SDS011;21982;49.804;24.072;2022-08-20T09:21:43;9.43;;;4.30;;
35877;SDS011;21982;49.804;24.072;2022-08-20T09:24:08;11.43;;;5.10;;
35877;SDS011;21982;49.804;24.072;2022-08-20T09:26:33;8.27;;;5.00;;
35877;SDS011;21982;49.804;24.072;2022-08-20T09:28:59;7.90;;;5.72;;
35877;SDS011;21982;49.804;24.072;2022-08-20T09:31:25;10.65;;;4.57;;
35877;SDS011;21982;49.804;24.072;2022-08-20T09:33:51;11.15;;;4.95;;
35877;SDS011;21982;49.804;24.072;2022-08-20T09:36:17;12.68;;;5.35;;
35877;SDS011;21982;49.804;24.072;2022-08-20T09:38:42;9.13;;;4.55;;
35877;SDS011;21982;49.804;24.072;2022-08-20T09:41:11;12.75;;;4.65;;
35877;SDS011;21982;49.804;24.072;2022-08-20T09:43:36;9.40;;;4.93;;
35877;SDS011;21982;49.804;24.072;2022-08-20T09:46:14;9.55;;;3.90;;
35877;SDS011;21982;49.804;24.072;2022-08-20T09:48:39;9.88;;;5.68;;
35877;SDS011;21982;49.804;24.072;2022-08-20T09:51:05;8.93;;;4.70;;
35877;SDS011;21982;49.804;24.072;2022-08-20T09:53:34;16.70;;;4.88;;
35877;SDS011;21982;49.804;24.072;2022-08-20T09:56:16;12.95;;;4.90;;
35877;SDS011;21982;49.804;24.072;2022-08-20T09:58:52;11.32;;;4.53;;
35877;SDS011;21982;49.804;24.072;2022-08-20T10:01:19;14.25;;;6.20;;
35877;SDS011;21982;49.804;24.072;2022-08-20T10:03:52;8.38;;;4.50;;
35877;SDS011;21982;49.804;24.072;2022-08-20T10:06:19;8.55;;;4.40;;
35877;SDS011;21982;49.804;24.072;2022-08-20T10:08:48;10.05;;;5.05;;
35877;SDS011;21982;49.804;24.072;2022-08-20T10:11:19;9.85;;;4.78;;
35877;SDS011;21982;49.804;24.072;2022-08-20T10:13:48;17.58;;;5.70;;
35877;SDS011;21982;49.804;24.072;2022-08-20T10:16:17;11.35;;;4.25;;
35877;SDS011;21982;49.804;24.072;2022-08-20T10:18:46;10.32;;;4.55;;
35877;SDS011;21982;49.804;24.072;2022-08-20T10:21:13;8.80;;;4.57;;
35877;SDS011;21982;49.804;24.072;2022-08-20T10:23:43;7.18;;;4.45;;
35877;SDS011;21982;49.804;24.072;2022-08-20T10:26:09;10.40;;;4.43;;
35877;SDS011;21982;49.804;24.072;2022-08-20T10:28:39;11.80;;;5.05;;
35877;SDS011;21982;49.804;24.072;2022-08-20T10:31:09;11.93;;;4.65;;
35877;SDS011;21982;49.804;24.072;2022-08-20T10:33:36;11.10;;;4.43;;
35877;SDS011;21982;49.804;24.072;2022-08-20T10:36:06;8.73;;;4.35;;
35877;SDS011;21982;49.804;24.072;2022-08-20T10:38:33;10.88;;;4.43;;
35877;SDS011;21982;49.804;24.072;2022-08-20T10:40:59;8.00;;;4.25;;
35877;SDS011;21982;49.804;24.072;2022-08-20T10:43:27;9.05;;;5.15;;
35877;SDS011;21982;49.804;24.072;2022-08-20T10:45:52;9.10;;;4.68;;
35877;SDS011;21982;49.804;24.072;2022-08-20T10:48:18;12.48;;;5.35;;
35877;SDS011;21982;49.804;24.072;2022-08-20T10:50:43;10.45;;;4.78;;
35877;SDS011;21982;49.804;24.072;2022-08-20T10:53:09;14.15;;;4.82;;
35877;SDS011;21982;49.804;24.072;2022-08-20T10:55:34;15.30;;;4.97;;
35877;SDS011;21982;49.804;24.072;2022-08-20T10:57:59;8.40;;;4.53;;
35877;SDS011;21982;49.804;24.072;2022-08-20T11:00:25;7.28;;;4.18;;
35877;SDS011;21982;49.804;24.072;2022-08-20T11:02:50;8.00;;;3.88;;
35877;SDS011;21982;49.804;24.072;2022-08-20T11:05:16;15.77;;;4.80;;
35877;SDS011;21982;49.804;24.072;2022-08-20T11:07:42;11.57;;;4.80;;
35877;SDS011;21982;49.804;24.072;2022-08-20T11:10:09;6.75;;;4.30;;
35877;SDS011;21982;49.804;24.072;2022-08-20T11:12:35;9.27;;;4.00;;
35877;SDS011;21982;49.804;24.072;2022-08-20T11:15:09;8.32;;;4.72;;
35877;SDS011;21982;49.804;24.072;2022-08-20T11:17:41;8.10;;;4.40;;
35877;SDS011;21982;49.804;24.072;2022-08-20T11:20:10;13.05;;;4.82;;
35877;SDS011;21982;49.804;24.072;2022-08-20T11:22:37;7.60;;;4.50;;
35877;SDS011;21982;49.804;24.072;2022-08-20T11:25:03;18.10;;;5.10;;
35877;SDS011;21982;49.804;24.072;2022-08-20T11:27:31;9.68;;;4.32;;
35877;SDS011;21982;49.804;24.072;2022-08-20T11:30:06;10.73;;;4.90;;
35877;SDS011;21982;49.804;24.072;2022-08-20T11:32:40;8.48;;;4.15;;
35877;SDS011;21982;49.804;24.072;2022-08-20T11:35:06;11.07;;;5.43;;
35877;SDS011;21982;49.804;24.072;2022-08-20T11:37:32;7.82;;;4.43;;
35877;SDS011;21982;49.804;24.072;2022-08-20T11:39:58;9.30;;;4.65;;
35877;SDS011;21982;49.804;24.072;2022-08-20T11:42:23;9.43;;;4.82;;
35877;SDS011;21982;49.804;24.072;2022-08-20T11:44:49;13.25;;;5.53;;
35877;SDS011;21982;49.804;24.072;2022-08-20T11:47:24;9.40;;;4.95;;
35877;SDS011;21982;49.804;24.072;2022-08-20T11:49:56;9.05;;;4.28;;
35877;SDS011;21982;49.804;24.072;2022-08-20T11:52:21;14.38;;;5.47;;
35877;SDS011;21982;49.804;24.072;2022-08-20T11:54:47;7.40;;;4.40;;
35877;SDS011;21982;49.804;24.072;2022-08-20T11:57:16;11.40;;;5.03;;
35877;SDS011;21982;49.804;24.072;2022-08-20T11:59:47;9.63;;;4.75;;
35877;SDS011;21982;49.804;24.072;2022-08-20T12:02:17;10.73;;;4.68;;
35877;SDS011;21982;49.804;24.072;2022-08-20T12:04:43;7.43;;;4.25;;
35877;SDS011;21982;49.804;24.072;2022-08-20T12:07:13;12.43;;;5.22;;
35877;SDS011;21982;49.804;24.072;2022-08-20T12:09:44;12.25;;;4.97;;
35877;SDS011;21982;49.804;24.072;2022-08-20T12:12:17;9.90;;;5.10;;
35877;SDS011;21982;49.804;24.072;2022-08-20T12:14:51;15.88;;;5.65;;
35877;SDS011;21982;49.804;24.072;2022-08-20T12:17:23;9.57;;;4.35;;
35877;SDS011;21982;49.804;24.072;2022-08-20T12:19:51;9.57;;;6.03;;
35877;SDS011;21982;49.804;24.072;2022-08-20T12:22:18;11.00;;;4.95;;
35877;SDS011;21982;49.804;24.072;2022-08-20T12:24:44;10.23;;;5.07;;
35877;SDS011;21982;49.804;24.072;2022-08-20T12:27:13;8.88;;;4.38;;
35877;SDS011;21982;49.804;24.072;2022-08-20T12:29:42;11.10;;;5.35;;
35877;SDS011;21982;49.804;24.072;2022-08-20T12:32:08;10.10;;;5.10;;
35877;SDS011;21982;49.804;24.072;2022-08-20T12:34:35;12.27;;;5.60;;
35877;SDS011;21982;49.804;24.072;2022-08-20T12:37:03;8.60;;;4.32;;
35877;SDS011;21982;49.804;24.072;2022-08-20T12:39:32;7.43;;;4.32;;
35877;SDS011;21982;49.804;24.072;2022-08-20T12:41:59;6.60;;;4.40;;
35877;SDS011;21982;49.804;24.072;2022-08-20T12:44:28;12.07;;;5.32;;
35877;SDS011;21982;49.804;24.072;2022-08-20T12:47:11;8.85;;;4.68;;
35877;SDS011;21982;49.804;24.072;2022-08-20T12:49:45;9.05;;;4.68;;
35877;SDS011;21982;49.804;24.072;2022-08-20T12:52:13;11.57;;;4.32;;
35877;SDS011;21982;49.804;24.072;2022-08-20T12:54:40;12.48;;;5.22;;
35877;SDS011;21982;49.804;24.072;2022-08-20T12:57:06;9.80;;;4.78;;
35877;SDS011;21982;49.804;24.072;2022-08-20T12:59:36;10.82;;;4.47;;
35877;SDS011;21982;49.804;24.072;2022-08-20T13:02:02;13.15;;;4.72;;
35877;SDS011;21982;49.804;24.072;2022-08-20T13:04:27;9.48;;;4.57;;
35877;SDS011;21982;49.804;24.072;2022-08-20T13:06:53;11.77;;;4.65;;
35877;SDS011;21982;49.804;24.072;2022-08-20T13:09:25;11.73;;;4.55;;
35877;SDS011;21982;49.804;24.072;2022-08-20T13:11:51;13.88;;;4.60;;
35877;SDS011;21982;49.804;24.072;2022-08-20T13:14:24;11.55;;;5.07;;
35877;SDS011;21982;49.804;24.072;2022-08-20T13:16:56;8.27;;;4.65;;
35877;SDS011;21982;49.804;24.072;2022-08-20T13:19:28;11.60;;;5.20;;
35877;SDS011;21982;49.804;24.072;2022-08-20T13:21:55;12.35;;;5.40;;
35877;SDS011;21982;49.804;24.072;2022-08-20T13:24:21;12.27;;;5.10;;
35877;SDS011;21982;49.804;24.072;2022-08-20T13:26:47;9.35;;;5.50;;
35877;SDS011;21982;49.804;24.072;2022-08-20T13:29:13;11.48;;;5.40;;
35877;SDS011;21982;49.804;24.072;2022-08-20T13:31:39;14.20;;;5.00;;
35877;SDS011;21982;49.804;24.072;2022-08-20T13:34:05;15.43;;;5.10;;
35877;SDS011;21982;49.804;24.072;2022-08-20T13:36:31;11.93;;;5.28;;
35877;SDS011;21982;49.804;24.072;2022-08-20T13:38:56;11.55;;;4.78;;
35877;SDS011;21982;49.804;24.072;2022-08-20T13:41:22;10.18;;;5.28;;
35877;SDS011;21982;49.804;24.072;2022-08-20T13:43:48;11.60;;;6.30;;
35877;SDS011;21982;49.804;24.072;2022-08-20T13:46:13;9.23;;;4.70;;
35877;SDS011;21982;49.804;24.072;2022-08-20T13:48:39;11.32;;;5.35;;
35877;SDS011;21982;49.804;24.072;2022-08-20T13:51:04;9.90;;;5.22;;
35877;SDS011;21982;49.804;24.072;2022-08-20T13:53:29;13.43;;;5.60;;
35877;SDS011;21982;49.804;24.072;2022-08-20T13:55:55;12.20;;;5.32;;
35877;SDS011;21982;49.804;24.072;2022-08-20T13:58:20;11.45;;;5.43;;
35877;SDS011;21982;49.804;24.072;2022-08-20T14:00:47;11.52;;;5.88;;
35877;SDS011;21982;49.804;24.072;2022-08-20T14:03:14;14.18;;;6.50;;
35877;SDS011;21982;49.804;24.072;2022-08-20T14:05:39;11.05;;;6.05;;
35877;SDS011;21982;49.804;24.072;2022-08-20T14:08:17;9.35;;;5.88;;
35877;SDS011;21982;49.804;24.072;2022-08-20T14:10:52;11.25;;;5.18;;
35877;SDS011;21982;49.804;24.072;2022-08-20T14:13:23;11.00;;;6.22;;
35877;SDS011;21982;49.804;24.072;2022-08-20T14:15:51;13.93;;;6.22;;
35877;SDS011;21982;49.804;24.072;2022-08-20T14:18:17;10.63;;;5.03;;
35877;SDS011;21982;49.804;24.072;2022-08-20T14:20:48;8.73;;;5.63;;
35877;SDS011;21982;49.804;24.072;2022-08-20T14:23:19;15.57;;;5.78;;
35877;SDS011;21982;49.804;24.072;2022-08-20T14:25:51;10.48;;;5.20;;
35877;SDS011;21982;49.804;24.072;2022-08-20T14:28:21;12.18;;;5.78;;
35877;SDS011;21982;49.804;24.072;2022-08-20T14:30:51;14.30;;;5.28;;
35877;SDS011;21982;49.804;24.072;2022-08-20T14:33:22;11.43;;;5.15;;
35877;SDS011;21982;49.804;24.072;2022-08-20T14:35:54;11.65;;;6.43;;
35877;SDS011;21982;49.804;24.072;2022-08-20T14:38:20;12.30;;;5.68;;
35877;SDS011;21982;49.804;24.072;2022-08-20T14:40:45;13.27;;;5.30;;
35877;SDS011;21982;49.804;24.072;2022-08-20T14:43:11;11.10;;;5.35;;
35877;SDS011;21982;49.804;24.072;2022-08-20T14:45:36;10.02;;;5.20;;
35877;SDS011;21982;49.804;24.072;2022-08-20T14:48:02;11.88;;;5.38;;
35877;SDS011;21982;49.804;24.072;2022-08-20T14:50:32;12.48;;;7.53;;
35877;SDS011;21982;49.804;24.072;2022-08-20T14:52:59;10.77;;;5.15;;
35877;SDS011;21982;49.804;24.072;2022-08-20T14:55:27;10.48;;;5.97;;